sensor_id;sensor_type;location;lat;lon;timestamp;temperature;humidity
2851;DHT22;1433;49.976;8.342;2023-02-26T00:01:31;0.20;99.90
2851;DHT22;1433;49.976;8.342;2023-02-26T00:03:59;0.30;99.90
2851;DHT22;1433;49.976;8.342;2023-02-26T00:06:27;0.30;99.90
2851;DHT22;1433;49.976;8.342;2023-02-26T00:08:56;0.40;99.90
2851;DHT22;1433;49.976;8.342;2023-02-26T00:11:22;0.50;99.90
2851;DHT22;1433;49.976;8.342;2023-02-26T00:13:49;0.50;99.90
2851;DHT22;1433;49.976;8.342;2023-02-26T00:16:25;0.50;99.90
2851;DHT22;1433;49.976;8.342;2023-02-26T00:18:55;0.50;99.90
2851;DHT22;1433;49.976;8.342;2023-02-26T00:21:24;0.60;99.90
2851;DHT22;1433;49.976;8.342;2023-02-26T00:23:52;0.60;99.90
2851;DHT22;1433;49.976;8.342;2023-02-26T00:26:19;0.60;99.90
2851;DHT22;1433;49.976;8.342;2023-02-26T00:28:46;0.60;99.90
2851;DHT22;1433;49.976;8.342;2023-02-26T00:31:14;0.60;99.90
2851;DHT22;1433;49.976;8.342;2023-02-26T00:33:42;0.60;99.90
2851;DHT22;1433;49.976;8.342;2023-02-26T00:39:05;0.60;99.90
2851;DHT22;1433;49.976;8.342;2023-02-26T00:41:34;0.60;99.90
2851;DHT22;1433;49.976;8.342;2023-02-26T00:44:01;0.70;99.90
2851;DHT22;1433;49.976;8.342;2023-02-26T00:46:57;0.70;99.90
2851;DHT22;1433;49.976;8.342;2023-02-26T00:55:41;0.70;99.90
2851;DHT22;1433;49.976;8.342;2023-02-26T00:58:07;0.80;99.90
2851;DHT22;1433;49.976;8.342;2023-02-26T01:00:34;0.80;99.90
2851;DHT22;1433;49.976;8.342;2023-02-26T01:03:02;0.80;99.90
2851;DHT22;1433;49.976;8.342;2023-02-26T01:05:30;0.80;99.90
2851;DHT22;1433;49.976;8.342;2023-02-26T01:08:25;0.80;99.90
2851;DHT22;1433;49.976;8.342;2023-02-26T01:11:02;0.80;99.90
2851;DHT22;1433;49.976;8.342;2023-02-26T01:13:29;0.80;99.90
2851;DHT22;1433;49.976;8.342;2023-02-26T01:15:58;0.90;99.90
2851;DHT22;1433;49.976;8.342;2023-02-26T01:18:32;0.80;99.90
2851;DHT22;1433;49.976;8.342;2023-02-26T01:21:02;0.90;99.90
2851;DHT22;1433;49.976;8.342;2023-02-26T01:23:34;0.90;99.90
2851;DHT22;1433;49.976;8.342;2023-02-26T01:26:17;0.90;99.90
2851;DHT22;1433;49.976;8.342;2023-02-26T01:28:42;0.90;99.90
2851;DHT22;1433;49.976;8.342;2023-02-26T01:31:14;0.90;99.90
2851;DHT22;1433;49.976;8.342;2023-02-26T01:33:59;0.90;99.90
2851;DHT22;1433;49.976;8.342;2023-02-26T01:36:31;0.90;99.90
2851;DHT22;1433;49.976;8.342;2023-02-26T01:41:55;0.90;99.90
2851;DHT22;1433;49.976;8.342;2023-02-26T01:45:22;0.90;99.90
2851;DHT22;1433;49.976;8.342;2023-02-26T01:47:27;0.90;99.90
2851;DHT22;1433;49.976;8.342;2023-02-26T01:50:18;0.90;99.90
2851;DHT22;1433;49.976;8.342;2023-02-26T01:55:22;1.00;99.90
2851;DHT22;1433;49.976;8.342;2023-02-26T01:57:52;1.00;99.90
2851;DHT22;1433;49.976;8.342;2023-02-26T02:00:21;1.00;99.90
2851;DHT22;1433;49.976;8.342;2023-02-26T02:02:48;1.00;99.90
2851;DHT22;1433;49.976;8.342;2023-02-26T02:05:24;1.10;99.90
2851;DHT22;1433;49.976;8.342;2023-02-26T02:07:59;1.00;99.90
2851;DHT22;1433;49.976;8.342;2023-02-26T02:10:27;1.00;99.90
2851;DHT22;1433;49.976;8.342;2023-02-26T02:13:09;1.00;99.90
2851;DHT22;1433;49.976;8.342;2023-02-26T02:18:35;1.00;99.90
2851;DHT22;1433;49.976;8.342;2023-02-26T02:27:09;0.80;99.90
2851;DHT22;1433;49.976;8.342;2023-02-26T02:32:57;0.80;99.90
2851;DHT22;1433;49.976;8.342;2023-02-26T02:35:46;0.70;99.90
2851;DHT22;1433;49.976;8.342;2023-02-26T02:38:25;0.70;99.90
2851;DHT22;1433;49.976;8.342;2023-02-26T02:41:12;0.70;99.90
2851;DHT22;1433;49.976;8.342;2023-02-26T02:43:41;0.80;99.90
2851;DHT22;1433;49.976;8.342;2023-02-26T02:46:12;0.80;99.90
2851;DHT22;1433;49.976;8.342;2023-02-26T02:48:43;0.80;99.90
2851;DHT22;1433;49.976;8.342;2023-02-26T02:51:27;0.90;99.90
2851;DHT22;1433;49.976;8.342;2023-02-26T02:54:27;0.90;99.90
2851;DHT22;1433;49.976;8.342;2023-02-26T02:56:52;0.90;99.90
2851;DHT22;1433;49.976;8.342;2023-02-26T02:59:32;0.80;99.90
2851;DHT22;1433;49.976;8.342;2023-02-26T03:02:07;0.80;99.90
2851;DHT22;1433;49.976;8.342;2023-02-26T03:04:40;0.70;99.90
2851;DHT22;1433;49.976;8.342;2023-02-26T03:07:07;0.60;99.90
2851;DHT22;1433;49.976;8.342;2023-02-26T03:09:34;0.50;99.90
2851;DHT22;1433;49.976;8.342;2023-02-26T03:12:00;0.50;99.90
2851;DHT22;1433;49.976;8.342;2023-02-26T03:14:28;0.40;99.90
2851;DHT22;1433;49.976;8.342;2023-02-26T03:19:48;0.10;99.90
2851;DHT22;1433;49.976;8.342;2023-02-26T03:22:28;0.10;99.90
2851;DHT22;1433;49.976;8.342;2023-02-26T03:25:34;0.00;99.90
2851;DHT22;1433;49.976;8.342;2023-02-26T03:30:56;-0.10;99.90
2851;DHT22;1433;49.976;8.342;2023-02-26T03:36:04;-0.20;99.90
2851;DHT22;1433;49.976;8.342;2023-02-26T03:38:52;-0.30;99.90
2851;DHT22;1433;49.976;8.342;2023-02-26T03:41:24;-0.30;99.90
2851;DHT22;1433;49.976;8.342;2023-02-26T03:44:04;-0.40;99.90
2851;DHT22;1433;49.976;8.342;2023-02-26T03:46:42;-0.50;99.90
2851;DHT22;1433;49.976;8.342;2023-02-26T03:49:13;-0.50;99.90
2851;DHT22;1433;49.976;8.342;2023-02-26T03:51:43;-0.50;99.90
2851;DHT22;1433;49.976;8.342;2023-02-26T03:54:25;-0.50;99.90
2851;DHT22;1433;49.976;8.342;2023-02-26T03:56:52;-0.60;99.90
2851;DHT22;1433;49.976;8.342;2023-02-26T03:59:30;-0.70;99.90
2851;DHT22;1433;49.976;8.342;2023-02-26T04:02:31;-0.80;99.90
2851;DHT22;1433;49.976;8.342;2023-02-26T04:05:05;-0.80;99.90
2851;DHT22;1433;49.976;8.342;2023-02-26T04:07:41;-0.80;99.90
2851;DHT22;1433;49.976;8.342;2023-02-26T04:10:10;-0.80;99.90
2851;DHT22;1433;49.976;8.342;2023-02-26T04:12:42;-0.80;99.90
2851;DHT22;1433;49.976;8.342;2023-02-26T04:15:09;-0.90;99.90
2851;DHT22;1433;49.976;8.342;2023-02-26T04:17:36;-0.90;99.90
2851;DHT22;1433;49.976;8.342;2023-02-26T04:20:03;-0.90;99.90
2851;DHT22;1433;49.976;8.342;2023-02-26T04:22:34;-1.00;99.90
2851;DHT22;1433;49.976;8.342;2023-02-26T04:25:01;-1.00;99.90
2851;DHT22;1433;49.976;8.342;2023-02-26T04:27:27;-1.00;99.90
2851;DHT22;1433;49.976;8.342;2023-02-26T04:29:53;-1.00;99.90
2851;DHT22;1433;49.976;8.342;2023-02-26T04:32:20;-1.00;99.90
2851;DHT22;1433;49.976;8.342;2023-02-26T04:34:46;-1.10;99.90
2851;DHT22;1433;49.976;8.342;2023-02-26T04:37:14;-1.00;99.90
2851;DHT22;1433;49.976;8.342;2023-02-26T04:39:41;-1.10;99.90
2851;DHT22;1433;49.976;8.342;2023-02-26T04:42:09;-1.10;99.90
2851;DHT22;1433;49.976;8.342;2023-02-26T04:44:36;-1.10;99.90
2851;DHT22;1433;49.976;8.342;2023-02-26T04:47:02;-1.10;99.90
2851;DHT22;1433;49.976;8.342;2023-02-26T04:49:30;-1.10;99.90
2851;DHT22;1433;49.976;8.342;2023-02-26T04:51:56;-1.10;99.90
2851;DHT22;1433;49.976;8.342;2023-02-26T04:54:23;-1.10;99.90
2851;DHT22;1433;49.976;8.342;2023-02-26T04:56:49;-1.20;99.90
2851;DHT22;1433;49.976;8.342;2023-02-26T04:59:16;-1.30;99.90
2851;DHT22;1433;49.976;8.342;2023-02-26T05:01:42;-1.30;99.90
2851;DHT22;1433;49.976;8.342;2023-02-26T05:04:09;-1.30;99.90
2851;DHT22;1433;49.976;8.342;2023-02-26T05:06:35;-1.30;99.90
2851;DHT22;1433;49.976;8.342;2023-02-26T05:09:02;-1.30;99.90
2851;DHT22;1433;49.976;8.342;2023-02-26T05:11:30;-1.30;99.90
2851;DHT22;1433;49.976;8.342;2023-02-26T05:13:59;-1.40;99.90
2851;DHT22;1433;49.976;8.342;2023-02-26T05:16:25;-1.40;99.90
2851;DHT22;1433;49.976;8.342;2023-02-26T05:18:52;-1.40;99.90
2851;DHT22;1433;49.976;8.342;2023-02-26T05:21:18;-1.50;99.90
2851;DHT22;1433;49.976;8.342;2023-02-26T05:23:44;-1.50;99.90
2851;DHT22;1433;49.976;8.342;2023-02-26T05:26:10;-1.40;99.90
2851;DHT22;1433;49.976;8.342;2023-02-26T05:28:37;-1.40;99.90
2851;DHT22;1433;49.976;8.342;2023-02-26T05:31:03;-1.40;99.90
2851;DHT22;1433;49.976;8.342;2023-02-26T05:33:31;-1.30;99.90
2851;DHT22;1433;49.976;8.342;2023-02-26T05:35:58;-1.40;99.90
2851;DHT22;1433;49.976;8.342;2023-02-26T05:38:24;-1.30;99.90
2851;DHT22;1433;49.976;8.342;2023-02-26T05:40:54;-1.30;99.90
2851;DHT22;1433;49.976;8.342;2023-02-26T05:43:23;-1.30;99.90
2851;DHT22;1433;49.976;8.342;2023-02-26T05:45:50;-1.40;99.90
2851;DHT22;1433;49.976;8.342;2023-02-26T05:48:17;-1.30;99.90
2851;DHT22;1433;49.976;8.342;2023-02-26T05:50:44;-1.30;99.90
2851;DHT22;1433;49.976;8.342;2023-02-26T05:53:10;-1.30;99.90
2851;DHT22;1433;49.976;8.342;2023-02-26T05:55:37;-1.30;99.90
2851;DHT22;1433;49.976;8.342;2023-02-26T05:58:03;-1.30;99.90
2851;DHT22;1433;49.976;8.342;2023-02-26T06:00:29;-1.40;99.90
2851;DHT22;1433;49.976;8.342;2023-02-26T06:02:55;-1.50;99.90
2851;DHT22;1433;49.976;8.342;2023-02-26T06:05:21;-1.50;99.90
2851;DHT22;1433;49.976;8.342;2023-02-26T06:07:48;-1.50;99.90
2851;DHT22;1433;49.976;8.342;2023-02-26T06:10:14;-1.50;99.90
2851;DHT22;1433;49.976;8.342;2023-02-26T06:12:40;-1.50;99.90
2851;DHT22;1433;49.976;8.342;2023-02-26T06:15:08;-1.50;99.90
2851;DHT22;1433;49.976;8.342;2023-02-26T06:17:35;-1.50;99.90
2851;DHT22;1433;49.976;8.342;2023-02-26T06:20:03;-1.50;99.90
2851;DHT22;1433;49.976;8.342;2023-02-26T06:22:30;-1.60;99.90
2851;DHT22;1433;49.976;8.342;2023-02-26T06:24:56;-1.60;99.90
2851;DHT22;1433;49.976;8.342;2023-02-26T06:27:24;-1.60;99.90
2851;DHT22;1433;49.976;8.342;2023-02-26T06:29:51;-1.60;99.90
2851;DHT22;1433;49.976;8.342;2023-02-26T06:32:17;-1.60;99.90
2851;DHT22;1433;49.976;8.342;2023-02-26T06:34:43;-1.70;99.90
2851;DHT22;1433;49.976;8.342;2023-02-26T06:37:09;-1.70;99.90
2851;DHT22;1433;49.976;8.342;2023-02-26T06:39:36;-1.70;99.90
2851;DHT22;1433;49.976;8.342;2023-02-26T06:42:02;-1.70;99.90
2851;DHT22;1433;49.976;8.342;2023-02-26T06:44:29;-1.60;99.90
2851;DHT22;1433;49.976;8.342;2023-02-26T06:46:56;-1.60;99.90
2851;DHT22;1433;49.976;8.342;2023-02-26T06:49:22;-1.60;99.90
2851;DHT22;1433;49.976;8.342;2023-02-26T06:51:48;-1.60;99.90
2851;DHT22;1433;49.976;8.342;2023-02-26T06:54:15;-1.50;99.90
2851;DHT22;1433;49.976;8.342;2023-02-26T06:56:41;-1.40;99.90
2851;DHT22;1433;49.976;8.342;2023-02-26T06:59:08;-1.30;99.90
2851;DHT22;1433;49.976;8.342;2023-02-26T07:01:35;-1.30;99.90
2851;DHT22;1433;49.976;8.342;2023-02-26T07:04:03;-1.30;99.90
2851;DHT22;1433;49.976;8.342;2023-02-26T07:06:29;-1.20;99.90
2851;DHT22;1433;49.976;8.342;2023-02-26T07:08:55;-1.10;99.90
2851;DHT22;1433;49.976;8.342;2023-02-26T07:11:21;-1.10;99.90
2851;DHT22;1433;49.976;8.342;2023-02-26T07:13:48;-1.00;99.90
2851;DHT22;1433;49.976;8.342;2023-02-26T07:16:16;-0.90;99.90
2851;DHT22;1433;49.976;8.342;2023-02-26T07:18:42;-0.90;99.90
2851;DHT22;1433;49.976;8.342;2023-02-26T07:21:08;-0.80;99.90
2851;DHT22;1433;49.976;8.342;2023-02-26T07:23:35;-0.90;99.90
2851;DHT22;1433;49.976;8.342;2023-02-26T07:26:01;-0.80;99.90
2851;DHT22;1433;49.976;8.342;2023-02-26T07:28:28;-0.70;99.90
2851;DHT22;1433;49.976;8.342;2023-02-26T07:30:55;-0.60;99.90
2851;DHT22;1433;49.976;8.342;2023-02-26T07:33:23;-0.60;99.90
2851;DHT22;1433;49.976;8.342;2023-02-26T07:35:50;-0.50;99.90
2851;DHT22;1433;49.976;8.342;2023-02-26T07:38:18;-0.50;99.90
2851;DHT22;1433;49.976;8.342;2023-02-26T07:40:45;-0.40;99.90
2851;DHT22;1433;49.976;8.342;2023-02-26T07:43:12;-0.20;99.90
2851;DHT22;1433;49.976;8.342;2023-02-26T07:45:40;-0.10;99.90
2851;DHT22;1433;49.976;8.342;2023-02-26T07:48:07;0.10;99.90
2851;DHT22;1433;49.976;8.342;2023-02-26T07:50:33;0.20;99.90
2851;DHT22;1433;49.976;8.342;2023-02-26T07:52:59;0.30;99.90
2851;DHT22;1433;49.976;8.342;2023-02-26T07:55:26;0.30;99.90
2851;DHT22;1433;49.976;8.342;2023-02-26T07:57:52;0.40;99.90
2851;DHT22;1433;49.976;8.342;2023-02-26T08:00:21;0.50;99.90
2851;DHT22;1433;49.976;8.342;2023-02-26T08:02:47;0.50;99.90
2851;DHT22;1433;49.976;8.342;2023-02-26T08:05:17;0.60;99.90
2851;DHT22;1433;49.976;8.342;2023-02-26T08:07:44;0.70;99.90
2851;DHT22;1433;49.976;8.342;2023-02-26T08:10:10;0.80;99.90
2851;DHT22;1433;49.976;8.342;2023-02-26T08:12:37;0.90;99.90
2851;DHT22;1433;49.976;8.342;2023-02-26T08:15:04;1.10;99.90
2851;DHT22;1433;49.976;8.342;2023-02-26T08:17:31;1.30;99.90
2851;DHT22;1433;49.976;8.342;2023-02-26T08:19:58;1.50;99.90
2851;DHT22;1433;49.976;8.342;2023-02-26T08:22:24;1.70;99.90
2851;DHT22;1433;49.976;8.342;2023-02-26T08:24:51;1.80;99.90
2851;DHT22;1433;49.976;8.342;2023-02-26T08:27:18;1.80;99.90
2851;DHT22;1433;49.976;8.342;2023-02-26T08:29:44;1.80;99.90
2851;DHT22;1433;49.976;8.342;2023-02-26T08:32:11;1.70;99.90
2851;DHT22;1433;49.976;8.342;2023-02-26T08:34:38;1.60;99.90
2851;DHT22;1433;49.976;8.342;2023-02-26T08:37:04;1.60;99.90
2851;DHT22;1433;49.976;8.342;2023-02-26T08:39:31;1.50;99.90
2851;DHT22;1433;49.976;8.342;2023-02-26T08:41:59;1.60;99.90
2851;DHT22;1433;49.976;8.342;2023-02-26T08:44:25;1.80;99.90
2851;DHT22;1433;49.976;8.342;2023-02-26T08:46:52;1.90;99.90
2851;DHT22;1433;49.976;8.342;2023-02-26T08:49:18;2.00;99.90
2851;DHT22;1433;49.976;8.342;2023-02-26T08:51:45;2.10;99.90
2851;DHT22;1433;49.976;8.342;2023-02-26T08:54:11;2.10;99.90
2851;DHT22;1433;49.976;8.342;2023-02-26T08:56:38;2.10;99.90
2851;DHT22;1433;49.976;8.342;2023-02-26T08:59:04;2.10;99.90
2851;DHT22;1433;49.976;8.342;2023-02-26T09:01:38;2.00;99.90
2851;DHT22;1433;49.976;8.342;2023-02-26T09:04:04;1.90;99.90
2851;DHT22;1433;49.976;8.342;2023-02-26T09:06:31;1.90;99.90
2851;DHT22;1433;49.976;8.342;2023-02-26T09:08:58;2.00;99.90
2851;DHT22;1433;49.976;8.342;2023-02-26T09:11:24;2.10;99.90
2851;DHT22;1433;49.976;8.342;2023-02-26T09:13:50;2.10;99.90
2851;DHT22;1433;49.976;8.342;2023-02-26T09:16:16;2.10;99.90
2851;DHT22;1433;49.976;8.342;2023-02-26T09:18:43;2.00;99.90
2851;DHT22;1433;49.976;8.342;2023-02-26T09:21:09;2.00;99.90
2851;DHT22;1433;49.976;8.342;2023-02-26T09:23:37;2.00;99.90
2851;DHT22;1433;49.976;8.342;2023-02-26T09:26:03;2.00;99.90
2851;DHT22;1433;49.976;8.342;2023-02-26T09:28:33;2.30;99.90
2851;DHT22;1433;49.976;8.342;2023-02-26T09:31:02;2.60;99.90
2851;DHT22;1433;49.976;8.342;2023-02-26T09:33:28;2.80;99.90
2851;DHT22;1433;49.976;8.342;2023-02-26T09:35:55;2.90;99.90
2851;DHT22;1433;49.976;8.342;2023-02-26T09:38:22;2.90;99.90
2851;DHT22;1433;49.976;8.342;2023-02-26T09:41:15;2.80;99.90
2851;DHT22;1433;49.976;8.342;2023-02-26T09:44:41;2.70;99.90
2851;DHT22;1433;49.976;8.342;2023-02-26T09:47:01;2.70;99.90
2851;DHT22;1433;49.976;8.342;2023-02-26T09:49:43;2.90;99.90
2851;DHT22;1433;49.976;8.342;2023-02-26T09:52:36;3.00;99.90
2851;DHT22;1433;49.976;8.342;2023-02-26T09:55:11;2.90;99.90
2851;DHT22;1433;49.976;8.342;2023-02-26T09:57:44;2.70;99.90
2851;DHT22;1433;49.976;8.342;2023-02-26T10:00:33;2.90;99.90
2851;DHT22;1433;49.976;8.342;2023-02-26T10:06:32;3.50;99.90
2851;DHT22;1433;49.976;8.342;2023-02-26T10:12:15;3.20;99.90
2851;DHT22;1433;49.976;8.342;2023-02-26T10:20:36;3.60;99.90
2851;DHT22;1433;49.976;8.342;2023-02-26T10:25:51;3.80;99.90
2851;DHT22;1433;49.976;8.342;2023-02-26T10:34:35;4.50;99.90
2851;DHT22;1433;49.976;8.342;2023-02-26T10:37:50;4.90;99.90
2851;DHT22;1433;49.976;8.342;2023-02-26T10:39:54;4.90;99.90
2851;DHT22;1433;49.976;8.342;2023-02-26T10:42:30;4.70;99.90
2851;DHT22;1433;49.976;8.342;2023-02-26T10:50:31;4.20;99.90
2851;DHT22;1433;49.976;8.342;2023-02-26T10:52:58;4.30;99.90
2851;DHT22;1433;49.976;8.342;2023-02-26T10:55:42;4.60;99.90
2851;DHT22;1433;49.976;8.342;2023-02-26T10:58:24;5.00;99.90
2851;DHT22;1433;49.976;8.342;2023-02-26T11:00:54;5.10;99.90
2851;DHT22;1433;49.976;8.342;2023-02-26T11:03:33;5.20;99.90
2851;DHT22;1433;49.976;8.342;2023-02-26T11:06:02;5.10;99.90
2851;DHT22;1433;49.976;8.342;2023-02-26T11:08:42;5.10;99.90
2851;DHT22;1433;49.976;8.342;2023-02-26T11:11:33;5.10;99.90
2851;DHT22;1433;49.976;8.342;2023-02-26T11:13:59;5.00;99.90
2851;DHT22;1433;49.976;8.342;2023-02-26T11:16:27;5.10;99.90
2851;DHT22;1433;49.976;8.342;2023-02-26T11:18:57;5.10;99.90
2851;DHT22;1433;49.976;8.342;2023-02-26T11:21:27;5.20;99.90
2851;DHT22;1433;49.976;8.342;2023-02-26T11:24:01;5.20;99.90
2851;DHT22;1433;49.976;8.342;2023-02-26T11:26:49;5.30;99.90
2851;DHT22;1433;49.976;8.342;2023-02-26T11:29:19;5.40;99.90
2851;DHT22;1433;49.976;8.342;2023-02-26T11:31:50;5.30;99.90
2851;DHT22;1433;49.976;8.342;2023-02-26T11:34:23;5.10;99.90
2851;DHT22;1433;49.976;8.342;2023-02-26T11:36:54;4.90;99.90
2851;DHT22;1433;49.976;8.342;2023-02-26T11:39:24;5.20;99.90
2851;DHT22;1433;49.976;8.342;2023-02-26T11:41:56;5.40;99.90
2851;DHT22;1433;49.976;8.342;2023-02-26T11:44:35;5.50;99.90
2851;DHT22;1433;49.976;8.342;2023-02-26T11:47:09;5.70;99.90
2851;DHT22;1433;49.976;8.342;2023-02-26T11:49:49;5.80;99.90
2851;DHT22;1433;49.976;8.342;2023-02-26T11:55:12;5.70;99.90
2851;DHT22;1433;49.976;8.342;2023-02-26T11:57:53;5.80;99.90
2851;DHT22;1433;49.976;8.342;2023-02-26T12:00:34;5.60;99.90
2851;DHT22;1433;49.976;8.342;2023-02-26T12:03:06;5.70;99.90
2851;DHT22;1433;49.976;8.342;2023-02-26T12:05:35;5.70;99.90
2851;DHT22;1433;49.976;8.342;2023-02-26T12:08:05;5.80;99.90
2851;DHT22;1433;49.976;8.342;2023-02-26T12:13:55;6.00;99.90
2851;DHT22;1433;49.976;8.342;2023-02-26T12:22:26;5.90;99.90
2851;DHT22;1433;49.976;8.342;2023-02-26T12:24:58;6.20;99.90
2851;DHT22;1433;49.976;8.342;2023-02-26T12:30:50;6.30;99.90
2851;DHT22;1433;49.976;8.342;2023-02-26T12:33:34;6.40;99.90
2851;DHT22;1433;49.976;8.342;2023-02-26T12:36:37;6.20;99.90
2851;DHT22;1433;49.976;8.342;2023-02-26T12:39:42;6.40;99.90
2851;DHT22;1433;49.976;8.342;2023-02-26T12:42:54;6.40;99.90
2851;DHT22;1433;49.976;8.342;2023-02-26T12:45:50;6.30;99.90
2851;DHT22;1433;49.976;8.342;2023-02-26T12:51:48;6.20;99.90
2851;DHT22;1433;49.976;8.342;2023-02-26T12:59:56;6.40;99.90
2851;DHT22;1433;49.976;8.342;2023-02-26T13:02:54;6.60;99.90
2851;DHT22;1433;49.976;8.342;2023-02-26T13:08:26;6.30;99.90
2851;DHT22;1433;49.976;8.342;2023-02-26T13:14:03;6.30;99.90
2851;DHT22;1433;49.976;8.342;2023-02-26T13:19:50;6.50;99.90
2851;DHT22;1433;49.976;8.342;2023-02-26T13:22:32;6.70;99.90
2851;DHT22;1433;49.976;8.342;2023-02-26T13:28:12;6.40;99.90
2851;DHT22;1433;49.976;8.342;2023-02-26T13:30:47;6.30;99.90
2851;DHT22;1433;49.976;8.342;2023-02-26T13:33:20;6.50;99.90
2851;DHT22;1433;49.976;8.342;2023-02-26T13:35:53;7.00;99.90
2851;DHT22;1433;49.976;8.342;2023-02-26T13:38:27;7.00;99.90
2851;DHT22;1433;49.976;8.342;2023-02-26T13:53:20;6.40;99.90
2851;DHT22;1433;49.976;8.342;2023-02-26T13:55:47;6.50;99.90
2851;DHT22;1433;49.976;8.342;2023-02-26T13:58:35;6.50;99.90
2851;DHT22;1433;49.976;8.342;2023-02-26T14:01:27;6.50;99.90
2851;DHT22;1433;49.976;8.342;2023-02-26T14:04:25;6.40;99.90
2851;DHT22;1433;49.976;8.342;2023-02-26T14:06:59;6.30;99.90
2851;DHT22;1433;49.976;8.342;2023-02-26T14:09:47;6.30;99.90
2851;DHT22;1433;49.976;8.342;2023-02-26T14:15:25;6.00;99.90
2851;DHT22;1433;49.976;8.342;2023-02-26T14:24:00;5.50;99.90
2851;DHT22;1433;49.976;8.342;2023-02-26T14:26:34;5.30;99.90
2851;DHT22;1433;49.976;8.342;2023-02-26T14:34:50;5.00;99.90
2851;DHT22;1433;49.976;8.342;2023-02-26T14:37:21;5.10;99.90
2851;DHT22;1433;49.976;8.342;2023-02-26T14:40:16;5.40;99.90
2851;DHT22;1433;49.976;8.342;2023-02-26T14:42:57;5.30;99.90
2851;DHT22;1433;49.976;8.342;2023-02-26T14:45:36;5.40;99.90
2851;DHT22;1433;49.976;8.342;2023-02-26T14:48:12;5.30;99.90
2851;DHT22;1433;49.976;8.342;2023-02-26T15:00:15;5.40;99.90
2851;DHT22;1433;49.976;8.342;2023-02-26T15:25:37;5.40;99.90
2851;DHT22;1433;49.976;8.342;2023-02-26T15:28:10;5.20;99.90
2851;DHT22;1433;49.976;8.342;2023-02-26T15:30:39;5.10;99.90
2851;DHT22;1433;49.976;8.342;2023-02-26T15:33:11;4.90;99.90
2851;DHT22;1433;49.976;8.342;2023-02-26T15:35:38;4.80;99.90
2851;DHT22;1433;49.976;8.342;2023-02-26T15:38:04;4.80;99.90
2851;DHT22;1433;49.976;8.342;2023-02-26T15:40:33;4.80;99.90
2851;DHT22;1433;49.976;8.342;2023-02-26T15:43:05;5.00;99.90
2851;DHT22;1433;49.976;8.342;2023-02-26T15:45:42;5.00;99.90
2851;DHT22;1433;49.976;8.342;2023-02-26T15:48:15;5.00;99.90
2851;DHT22;1433;49.976;8.342;2023-02-26T15:50:47;5.00;99.90
2851;DHT22;1433;49.976;8.342;2023-02-26T15:53:26;4.90;99.90
2851;DHT22;1433;49.976;8.342;2023-02-26T15:55:52;4.60;99.90
2851;DHT22;1433;49.976;8.342;2023-02-26T15:58:29;4.50;99.90
2851;DHT22;1433;49.976;8.342;2023-02-26T16:01:05;4.30;99.90
2851;DHT22;1433;49.976;8.342;2023-02-26T16:03:34;4.10;99.90
2851;DHT22;1433;49.976;8.342;2023-02-26T16:06:04;4.00;99.90
2851;DHT22;1433;49.976;8.342;2023-02-26T16:08:32;4.00;99.90
2851;DHT22;1433;49.976;8.342;2023-02-26T16:10:59;3.90;99.90
2851;DHT22;1433;49.976;8.342;2023-02-26T16:13:35;3.80;99.90
2851;DHT22;1433;49.976;8.342;2023-02-26T16:16:06;3.70;99.90
2851;DHT22;1433;49.976;8.342;2023-02-26T16:18:36;3.70;99.90
2851;DHT22;1433;49.976;8.342;2023-02-26T16:21:07;3.70;99.90
2851;DHT22;1433;49.976;8.342;2023-02-26T16:23:47;3.60;99.90
2851;DHT22;1433;49.976;8.342;2023-02-26T16:26:20;3.60;99.90
2851;DHT22;1433;49.976;8.342;2023-02-26T16:28:49;3.40;99.90
2851;DHT22;1433;49.976;8.342;2023-02-26T16:31:22;3.30;99.90
2851;DHT22;1433;49.976;8.342;2023-02-26T16:33:56;3.10;99.90
2851;DHT22;1433;49.976;8.342;2023-02-26T16:36:31;3.00;99.90
2851;DHT22;1433;49.976;8.342;2023-02-26T16:39:22;2.90;99.90
2851;DHT22;1433;49.976;8.342;2023-02-26T16:42:54;2.80;99.90
2851;DHT22;1433;49.976;8.342;2023-02-26T16:44:43;2.70;99.90
2851;DHT22;1433;49.976;8.342;2023-02-26T16:47:12;2.50;99.90
2851;DHT22;1433;49.976;8.342;2023-02-26T16:49:40;2.40;99.90
2851;DHT22;1433;49.976;8.342;2023-02-26T16:52:15;2.40;99.90
2851;DHT22;1433;49.976;8.342;2023-02-26T16:55:04;2.30;99.90
2851;DHT22;1433;49.976;8.342;2023-02-26T16:57:47;2.20;99.90
2851;DHT22;1433;49.976;8.342;2023-02-26T17:00:23;2.10;99.90
2851;DHT22;1433;49.976;8.342;2023-02-26T17:03:33;2.00;99.90
2851;DHT22;1433;49.976;8.342;2023-02-26T17:05:42;1.90;99.90
2851;DHT22;1433;49.976;8.342;2023-02-26T17:08:18;1.90;99.90
2851;DHT22;1433;49.976;8.342;2023-02-26T17:10:52;1.80;99.90
2851;DHT22;1433;49.976;8.342;2023-02-26T17:13:27;1.80;99.90
2851;DHT22;1433;49.976;8.342;2023-02-26T17:16:04;1.80;99.90
2851;DHT22;1433;49.976;8.342;2023-02-26T17:18:32;1.70;99.90
2851;DHT22;1433;49.976;8.342;2023-02-26T17:20:59;1.70;99.90
2851;DHT22;1433;49.976;8.342;2023-02-26T17:23:41;1.60;99.90
2851;DHT22;1433;49.976;8.342;2023-02-26T17:26:07;1.60;99.90
2851;DHT22;1433;49.976;8.342;2023-02-26T17:28:36;1.60;99.90
2851;DHT22;1433;49.976;8.342;2023-02-26T17:31:05;1.50;99.90
2851;DHT22;1433;49.976;8.342;2023-02-26T17:33:32;1.40;99.90
2851;DHT22;1433;49.976;8.342;2023-02-26T17:36:01;1.40;99.90
2851;DHT22;1433;49.976;8.342;2023-02-26T17:38:28;1.40;99.90
2851;DHT22;1433;49.976;8.342;2023-02-26T17:40:57;1.50;99.90
2851;DHT22;1433;49.976;8.342;2023-02-26T17:43:25;1.50;99.90
2851;DHT22;1433;49.976;8.342;2023-02-26T17:45:53;1.50;99.90
2851;DHT22;1433;49.976;8.342;2023-02-26T17:48:20;1.50;99.90
2851;DHT22;1433;49.976;8.342;2023-02-26T17:53:20;1.60;99.90
2851;DHT22;1433;49.976;8.342;2023-02-26T17:55:50;1.60;99.90
2851;DHT22;1433;49.976;8.342;2023-02-26T17:58:29;1.70;99.90
2851;DHT22;1433;49.976;8.342;2023-02-26T18:00:57;1.70;99.90
2851;DHT22;1433;49.976;8.342;2023-02-26T18:03:23;1.70;99.90
2851;DHT22;1433;49.976;8.342;2023-02-26T18:05:50;1.70;99.90
2851;DHT22;1433;49.976;8.342;2023-02-26T18:08:30;1.60;99.90
2851;DHT22;1433;49.976;8.342;2023-02-26T18:10:58;1.50;99.90
2851;DHT22;1433;49.976;8.342;2023-02-26T18:13:27;1.60;99.90
2851;DHT22;1433;49.976;8.342;2023-02-26T18:15:55;1.80;99.90
2851;DHT22;1433;49.976;8.342;2023-02-26T18:18:24;1.60;99.90
2851;DHT22;1433;49.976;8.342;2023-02-26T18:20:51;1.70;99.90
2851;DHT22;1433;49.976;8.342;2023-02-26T18:23:18;1.80;99.90
2851;DHT22;1433;49.976;8.342;2023-02-26T18:25:47;1.90;99.90
2851;DHT22;1433;49.976;8.342;2023-02-26T18:28:24;1.90;99.90
2851;DHT22;1433;49.976;8.342;2023-02-26T18:30:51;1.90;99.90
2851;DHT22;1433;49.976;8.342;2023-02-26T18:33:19;2.00;99.90
2851;DHT22;1433;49.976;8.342;2023-02-26T18:35:49;1.90;99.90
2851;DHT22;1433;49.976;8.342;2023-02-26T18:38:21;1.90;99.90
2851;DHT22;1433;49.976;8.342;2023-02-26T18:40:48;1.80;99.90
2851;DHT22;1433;49.976;8.342;2023-02-26T18:43:15;1.80;99.90
2851;DHT22;1433;49.976;8.342;2023-02-26T18:45:43;1.70;99.90
2851;DHT22;1433;49.976;8.342;2023-02-26T18:48:12;1.70;99.90
2851;DHT22;1433;49.976;8.342;2023-02-26T18:50:44;1.70;99.90
2851;DHT22;1433;49.976;8.342;2023-02-26T18:53:12;1.70;99.90
2851;DHT22;1433;49.976;8.342;2023-02-26T18:55:41;1.70;99.90
2851;DHT22;1433;49.976;8.342;2023-02-26T18:58:07;1.70;99.90
2851;DHT22;1433;49.976;8.342;2023-02-26T19:00:33;1.70;99.90
2851;DHT22;1433;49.976;8.342;2023-02-26T19:03:00;1.80;99.90
2851;DHT22;1433;49.976;8.342;2023-02-26T19:05:26;1.90;99.90
2851;DHT22;1433;49.976;8.342;2023-02-26T19:07:53;1.90;99.90
2851;DHT22;1433;49.976;8.342;2023-02-26T19:10:20;2.00;99.90
2851;DHT22;1433;49.976;8.342;2023-02-26T19:12:47;2.00;99.90
2851;DHT22;1433;49.976;8.342;2023-02-26T19:15:16;2.00;99.90
2851;DHT22;1433;49.976;8.342;2023-02-26T19:17:53;2.00;99.90
2851;DHT22;1433;49.976;8.342;2023-02-26T19:20:19;2.00;99.90
2851;DHT22;1433;49.976;8.342;2023-02-26T19:22:45;2.10;99.90
2851;DHT22;1433;49.976;8.342;2023-02-26T19:25:12;2.10;99.90